Change the Weather History Date:

Wednesday, February 20, 2013

  Actual Average (KHAI) Record (KHAI)
Temperature  
Mean Temperature 18 °F -  
Max Temperature 21 °F 38 °F 61 °F (1983)
Min Temperature 15 °F 20 °F -14 °F (2015)
Degree Days  
Heating Degree Days 47    
Moisture  
Dew Point 14 °F    
Average Humidity 81    
Maximum Humidity 86    
Minimum Humidity 74    
Precipitation  
Precipitation 0.00 in - - ()
Sea Level Pressure  
Sea Level Pressure 30.16 in    
Wind  
Wind Speed 12 mph (WNW)    
Max Wind Speed 18 mph    
Max Gust Speed 24 mph    
Visibility 7 miles    
Events Snow    
Averages and records for this station are not official NWS values.
T = Trace of Precipitation, MM = Missing Value Source: NWS Daily Summary

Daily Weather History Graph

Daily Weather History Graph

Search for Another Location

Airport or City:

Trip Planner

Search our weather history database for the weather conditions in past years. The results will help you decide how hot, cold, wet, or windy it might be!

Date:

Astronomy

Feb. 20, 2013 Rise Set
Actual Time 7:29 AM EST 6:21 PM EST
Civil Twilight 7:01 AM EST 6:49 PM EST
Nautical Twilight 6:29 AM EST 7:22 PM EST
Astronomical Twilight 5:57 AM EST 7:54 PM EST
Moon 1:39 PM EST (2/20) 3:52 AM EST (2/20)
Length of Visible Light 11h 48m
Length of Day
10h 51m
Waxing Gibbous, 76% of the Moon is Illuminated
Feb 20
Waxing Gibbous
Feb 25
Full
Mar 4
Last Quarter
Mar 11
New
Mar 19
First Quarter

Hourly Weather History & Observations

Time (EST) Temp. Windchill Dew Point Humidity Pressure Visibility Wind Dir Wind Speed Gust Speed Precip Events Conditions
12:14 AM 15.8 °F 1.4 °F 12.2 °F 86% 30.01 in 10.0 mi West 13.8 mph - N/A Snow Light Snow
12:35 AM 15.8 °F 3.4 °F 12.2 °F 86% 30.01 in 7.0 mi West 10.4 mph 24.2 mph N/A Snow Light Snow
12:54 AM 15.8 °F 3.4 °F 12.2 °F 86% 30.02 in 10.0 mi West 10.4 mph - N/A Snow Light Snow
1:15 AM 15.8 °F 2.1 °F 12.2 °F 86% 30.02 in 10.0 mi West 12.7 mph - N/A Snow Light Snow
1:35 AM 15.8 °F 2.1 °F 12.2 °F 86% 30.03 in 10.0 mi West 12.7 mph - N/A Snow Light Snow
1:54 AM 15.8 °F 0.9 °F 12.2 °F 86% 30.03 in 5.0 mi West 15.0 mph 19.6 mph N/A Snow Light Snow
2:15 AM 15.8 °F 2.7 °F 12.2 °F 86% 30.04 in 5.0 mi West 11.5 mph - N/A Snow Light Snow
2:35 AM 15.8 °F 2.7 °F 12.2 °F 86% 30.05 in 5.0 mi West 11.5 mph 19.6 mph N/A Snow Light Snow
2:54 AM 15.8 °F 2.1 °F 12.2 °F 86% 30.05 in 4.0 mi West 12.7 mph 17.3 mph N/A Snow Light Snow
3:15 AM 15.8 °F 2.1 °F 12.2 °F 86% 30.05 in 4.0 mi West 12.7 mph 19.6 mph N/A Snow Light Snow
3:35 AM 15.8 °F 2.7 °F 12.2 °F 86% 30.05 in 4.0 mi West 11.5 mph - N/A Snow Light Snow
3:54 AM 15.8 °F 1.4 °F 12.2 °F 86% 30.06 in 4.0 mi West 13.8 mph 17.3 mph N/A Snow Light Snow
4:15 AM 15.8 °F 1.4 °F 12.2 °F 86% 30.06 in 2.5 mi West 13.8 mph 18.4 mph N/A Snow Light Snow
4:35 AM 15.8 °F 2.1 °F 12.2 °F 86% 30.07 in 2.5 mi West 12.7 mph 18.4 mph N/A Snow Light Snow
4:54 AM 15.8 °F 2.1 °F 12.2 °F 86% 30.07 in 2.5 mi West 12.7 mph 17.3 mph N/A Snow Light Snow
5:15 AM 15.8 °F 3.4 °F 12.2 °F 86% 30.08 in 2.0 mi West 10.4 mph - N/A Snow Light Snow
5:35 AM 15.8 °F 5.1 °F 12.2 °F 86% 30.09 in 1.8 mi West 8.1 mph - N/A Snow Light Snow
5:54 AM 15.8 °F 3.4 °F 12.2 °F 86% 30.10 in 2.5 mi West 10.4 mph - N/A Snow Light Snow
6:15 AM 15.8 °F 2.7 °F 12.2 °F 86% 30.10 in 3.0 mi West 11.5 mph - N/A Snow Light Snow
6:35 AM 15.8 °F 4.2 °F 12.2 °F 86% 30.10 in 2.5 mi West 9.2 mph - N/A Snow Light Snow
6:54 AM 15.8 °F 3.4 °F 12.2 °F 86% 30.11 in 2.5 mi West 10.4 mph - N/A Snow Light Snow
7:15 AM 15.8 °F 3.4 °F 12.2 °F 86% 30.11 in 4.0 mi West 10.4 mph - N/A Snow Light Snow
7:55 AM 15.8 °F 2.1 °F 12.2 °F 86% 30.12 in 5.0 mi West 12.7 mph - N/A Snow Light Snow
8:15 AM 15.8 °F 3.4 °F 12.2 °F 86% 30.13 in 4.0 mi WNW 10.4 mph 16.1 mph N/A Snow Light Snow
8:34 AM 15.8 °F 6.1 °F 12.2 °F 86% 30.13 in 3.0 mi WNW 6.9 mph - N/A Snow Light Snow
9:15 AM 17.6 °F 6.4 °F 12.2 °F 79% 30.14 in 5.0 mi WNW 9.2 mph - N/A Snow Light Snow
9:34 AM 17.6 °F 6.4 °F 12.2 °F 79% 30.14 in 5.0 mi WNW 9.2 mph - N/A Snow Light Snow
9:55 AM 17.6 °F 4.3 °F 12.2 °F 79% 30.14 in 4.0 mi NW 12.7 mph - N/A Snow Light Snow
10:15 AM 19.4 °F 7.9 °F 12.2 °F 74% 30.15 in 3.0 mi WNW 10.4 mph - N/A Snow Light Snow
10:34 AM 19.4 °F 7.9 °F 14.0 °F 80% 30.16 in 2.0 mi WNW 10.4 mph - N/A Snow Light Snow
10:55 AM 19.4 °F 7.9 °F 14.0 °F 80% 30.16 in 4.0 mi WNW 10.4 mph - N/A Snow Light Snow
11:15 AM 19.4 °F 7.9 °F 14.0 °F 80% 30.17 in 5.0 mi WNW 10.4 mph - N/A Snow Light Snow
11:34 AM 19.4 °F 7.2 °F 14.0 °F 80% 30.18 in 2.5 mi WNW 11.5 mph 18.4 mph N/A Snow Light Snow
11:55 AM 19.4 °F 7.9 °F 14.0 °F 80% 30.18 in 3.0 mi WNW 10.4 mph 17.3 mph N/A Snow Light Snow
12:14 PM 19.4 °F 7.2 °F 14.0 °F 80% 30.18 in 3.0 mi WNW 11.5 mph 20.7 mph N/A Snow Light Snow
12:35 PM 19.4 °F 7.9 °F 15.8 °F 86% 30.19 in 4.0 mi West 10.4 mph 16.1 mph N/A Snow Light Snow
12:55 PM 19.4 °F 7.2 °F 15.8 °F 86% 30.18 in 2.5 mi West 11.5 mph 18.4 mph N/A Snow Light Snow
1:14 PM 21.2 °F 9.5 °F 15.8 °F 80% 30.18 in 7.0 mi WNW 11.5 mph - N/A Snow Light Snow
1:35 PM 21.2 °F 8.3 °F 14.0 °F 74% 30.18 in 10.0 mi WNW 13.8 mph 20.7 mph N/A Snow Light Snow
1:55 PM 21.2 °F 7.8 °F 15.8 °F 80% 30.18 in 10.0 mi NW 15.0 mph 21.9 mph N/A Snow Light Snow
2:15 PM 21.2 °F 7.8 °F 14.0 °F 74% 30.17 in 10.0 mi NW 15.0 mph 23.0 mph N/A Snow Light Snow
2:35 PM 21.2 °F 7.8 °F 14.0 °F 74% 30.18 in 10.0 mi WNW 15.0 mph 20.7 mph N/A Snow Light Snow
2:54 PM 21.2 °F 8.3 °F 15.8 °F 80% 30.20 in 10.0 mi WNW 13.8 mph 21.9 mph N/A Snow Light Snow
3:15 PM 21.2 °F 7.3 °F 15.8 °F 80% 30.22 in 7.0 mi NW 16.1 mph 23.0 mph N/A Snow Light Snow
3:35 PM 21.2 °F 8.3 °F 15.8 °F 80% 30.24 in 3.0 mi WNW 13.8 mph 21.9 mph N/A Snow Light Snow
3:54 PM 21.2 °F 6.4 °F 15.8 °F 80% 30.23 in 10.0 mi WNW 18.4 mph 23.0 mph N/A Snow Light Snow
4:15 PM 21.2 °F 8.3 °F 15.8 °F 80% 30.23 in 10.0 mi WNW 13.8 mph 21.9 mph N/A Snow Light Snow
4:35 PM 21.2 °F 9.5 °F 15.8 °F 80% 30.23 in 10.0 mi NW 11.5 mph 21.9 mph N/A Snow Light Snow
4:55 PM 21.2 °F 8.9 °F 15.8 °F 80% 30.23 in 10.0 mi NW 12.7 mph 21.9 mph N/A Snow Light Snow
5:15 PM 21.2 °F 8.3 °F 15.8 °F 80% 30.22 in 10.0 mi NW 13.8 mph 21.9 mph N/A Snow Light Snow
5:34 PM 21.2 °F 10.1 °F 15.8 °F 80% 30.21 in 10.0 mi NW 10.4 mph 20.7 mph N/A Snow Light Snow
5:55 PM 21.2 °F 9.5 °F 15.8 °F 80% 30.23 in 10.0 mi NW 11.5 mph 17.3 mph N/A Snow Light Snow
6:15 PM 21.2 °F 10.9 °F 15.8 °F 80% 30.23 in 10.0 mi NW 9.2 mph 17.3 mph N/A Snow Light Snow
6:34 PM 21.2 °F 10.9 °F 15.8 °F 80% 30.24 in 10.0 mi NW 9.2 mph - N/A Snow Light Snow
6:55 PM 21.2 °F 7.3 °F 15.8 °F 80% 30.24 in 10.0 mi NW 16.1 mph 21.9 mph N/A Snow Light Snow
7:14 PM 21.2 °F 8.9 °F 15.8 °F 80% 30.25 in 10.0 mi NNW 12.7 mph 20.7 mph N/A Snow Light Snow
7:35 PM 21.2 °F 10.9 °F 15.8 °F 80% 30.25 in 10.0 mi NNW 9.2 mph - N/A Snow Light Snow
7:55 PM 21.2 °F 8.9 °F 15.8 °F 80% 30.26 in 7.0 mi NNW 12.7 mph - N/A Snow Light Snow
8:14 PM 21.2 °F 8.9 °F 15.8 °F 80% 30.26 in 7.0 mi NNW 12.7 mph 20.7 mph N/A Snow Light Snow
8:35 PM 21.2 °F 8.9 °F 15.8 °F 80% 30.26 in 10.0 mi North 12.7 mph 17.3 mph N/A Snow Light Snow
8:55 PM 21.2 °F 9.5 °F 15.8 °F 80% 30.27 in 10.0 mi North 11.5 mph 19.6 mph N/A Snow Light Snow
9:15 PM 19.4 °F 5.0 °F 12.2 °F 74% 30.27 in 10.0 mi NNW 16.1 mph 24.2 mph N/A Snow Light Snow
9:35 PM 19.4 °F 7.2 °F 12.2 °F 74% 30.27 in 10.0 mi NNW 11.5 mph - N/A Snow Light Snow
9:54 PM 19.4 °F 7.2 °F 12.2 °F 74% 30.27 in 10.0 mi NNW 11.5 mph 17.3 mph N/A   Overcast
10:15 PM 19.4 °F 6.6 °F 12.2 °F 74% 30.27 in 10.0 mi NNW 12.7 mph - N/A Snow Light Snow
10:35 PM 19.4 °F 9.5 °F 12.2 °F 74% 30.26 in 10.0 mi North 8.1 mph - N/A   Overcast
10:54 PM 19.4 °F 7.9 °F 12.2 °F 74% 30.26 in 10.0 mi NNW 10.4 mph - N/A   Overcast
11:15 PM 19.4 °F 9.5 °F 14.0 °F 80% 30.26 in 10.0 mi North 8.1 mph - N/A   Overcast
11:35 PM 19.4 °F 7.9 °F 12.2 °F 74% 30.26 in 10.0 mi NNW 10.4 mph 17.3 mph N/A   Overcast
11:54 PM 19.4 °F 8.6 °F 14.0 °F 80% 30.26 in 10.0 mi NNW 9.2 mph - N/A   Overcast